Terminal Aerodrome Forecast
Issued by NWS

Home | Current Version | Previous Version | Text Only | Print | Product List | Glossary On
Versions: 1 2 3 4 5 6 7 8 9 10 11 12 13 14 15 16 17 18
701
FTUS41 KBTV 271121
TAFMSS
TAF
KMSS 271121Z 2712/2812 VRB03KT P6SM BKN080
     FM271500 23010KT P6SM VCSH BKN050
      TEMPO 2716/2720 VRB25G35KT 3SM SHRA BR BKN030
     FM280000 23007KT P6SM BKN050=

USA.gov is the U.S. government's official web portal to all federal, state and local government web resources and services.